Scholes International At Galveston Airport
KGLS : now visible

Airfield :











YOU CAN JOIN US ON...

 
LOGIN :

Register | Disclaimer

   EN    FR    IT 

 









Legend :    VFR   Marginal VFR   IFR   Intensive IFR   Very Intensive IFR
Visi :
Ceiling :
>= 8 km
>= 3000ft
5 to 8 km
1000 to 3000 ft
1500m to 5 km
500 to 1000 ft
800 to 1500m
200 to 500 ft
< 800m
< 200 ft
Symbols :   Thunderstorms  Fog  Heavy snow  Heavy precipitations  Wind > 20 kt






- Airport Elevation : 6 ft
- IATA code : GLS


KGLS - Scholes International At Galveston

CURRENT METAR :
  • 241052Z AUTO 12009KT 1 1/4SM BR OVC002 17/16 A2996 RMK AO2 SLP144 T01720161

EXPIRED METARs :
  • 240952Z AUTO 12007KT 1/2SM FG VV002 17/16 A2997 RMK AO2 SLP148 T01720161
  • 240924Z AUTO 11008KT 1/2SM FG VV003 17/16 A2997 RMK AO2 T01670156
  • 240902Z AUTO 10010KT 2SM BR OVC003 17/16 A2997 RMK AO2 T01670161
  • 240852Z AUTO 11009KT 1 1/2SM BR OVC003 17/16 A2997 RMK AO2 SLP148 T01670161 55005

TAF KGLS
Valid from the 24 at 12:00 until the 25 at 12:00 UTC


241130Z 2412/2512 11011KT 1SM BR VV002
TEMPO 2412/2415 1/2SM FG
FM241800 14015KT 1 1/2SM BR OVC003
FM242100 14014KT 3SM BR SCT006 OVC010
FM250000 13012KT 1SM BR OVC005
FM250800 17015KT 3SM BR VCSH OVC009
KZHU FIR / North America



MET'MAP, your aeronautical weather chart ! - Copyright ORBIFLY December 2007 - Disclaimer

ORBIFLY MET'MAP TEAM :

Programming & Development : Alexandra Zaïnal
Concept & original design : Baudouin d'Aumeries
Assistance for programming : Marc-Olivier Méhu
Technical & hardware support : Manuel Goepfert

Contact : metmap@orbifly.com




SOURCES & CREDITS :

   NOAA       Earth
Advisory